Terminal Aerodrome Forecast
Issued by NWS

Home | Current Version | Previous Version | Text Only | Print | Product List | Glossary On
Versions: 1 2 3 4 5 6 7 8 9 10 11 12 13 14
878
FTUS45 KRIW 091721
TAFJAC
TAF
KJAC 091721Z 0918/1018 20011KT 5SM -SN OVC020
     FM100000 20012G22KT 1SM -SN OVC010
     FM101500 19011KT 3SM -SN OVC016
      AMD LTD TO CLD VIS AND WIND=

USA.gov is the U.S. government's official web portal to all federal, state and local government web resources and services.